Resultate MXoN Samstag Freitrainings

Die Resultate werden laufen aktualisiert.

Free Practice MX Open

Pos Nr Rider Nat. Fed. Bike Bestlaptime in lap Diff. First Diff. Prev. Tot. Laps Speed
1 6 Anderson, Jason USA AMA Husqvarna 1:52.252 18 0:00.000 0:00.000 19 58.6
2 3 Paulin, Gautier FRA MCM Honda 1:52.814 12 0:00.562 0:00.562 13 58.3
3 18 Herlings, Jeffrey NED KNMV KTM 1:53.207 16 0:00.955 0:00.393 17 58.1
4 54 Simpson, Shaun GBR ACU KTM 1:54.120 12 0:01.868 0:00.913 16 57.7
5 15 Tonus, Arnaud SUI FMS Kawasaki 1:54.407 12 0:02.155 0:00.287 16 57.5
6 42 Cervellin, Michele ITA FMI Honda 1:54.597 11 0:02.345 0:00.190 16 57.4
7 36 Bobryshev, Evgeny RUS MUL Honda 1:54.698 8 0:02.446 0:00.101 16 57.4
8 21 Ferris, Dean AUS MA Husqvarna 1:54.709 14 0:02.457 0:00.011 17 57.4
9 9 Van doninck, Brent BEL FMB Yamaha 1:55.665 9 0:03.413 0:00.956 16 56.9
10 39 Noren, Fredrik SWE AMA Honda 1:56.023 12 0:03.771 0:00.358 17 56.7
11 75 Jasikonis, Arminas LTU DMSB Suzuki 1:56.290 9 0:04.038 0:00.267 18 56.6
12 27 Ullrich, Dennis GER DMSB KTM 1:56.503 11 0:04.251 0:00.213 18 56.5
13 33 Zaragoza, Jorge ESP RFME Honda 1:56.594 10 0:04.342 0:00.091 18 56.5
14 12 Kullas, Harri EST EMF KTM 1:56.724 13 0:04.472 0:00.130 14 56.4
15 114 Medaglia, Tyler CAN CMA Husqvarna 1:57.262 10 0:05.010 0:00.538 15 56.1
16 66 Smitka, Petr CZE ACCR KTM 1:57.692 11 0:05.440 0:00.430 12 55.9
17 99 McConahy , Noah PUR AMA Kawasaki 1:57.755 12 0:05.503 0:00.063 18 55.9
18 60 Yamamoto, Kei JPN MFJ Honda 1:58.002 10 0:05.750 0:00.247 16 55.8
19 48 Alberto, Paulo POR FMP Honda 1:58.664 7 0:06.412 0:00.662 14 55.5
20 63 Irt, Jernej SLO AMZS Yamaha 1:58.884 9 0:06.632 0:00.220 16 55.4
21 45 Meier, Glen DEN DMU KTM 1:59.027 9 0:06.775 0:00.143 16 55.3
22 30 Rauchenecker, Pascal AUT OeAMTC Husqvarna 1:59.110 15 0:06.858 0:00.083 16 55.3
23 111 Docherty, Michael RSA MSA Kawasaki 1:59.176 12 0:06.924 0:00.066 14 55.2
24 51 Edmonds, Stuart IRL MCUI TM 1:59.433 14 0:07.181 0:00.257 15 55.1
25 126 Toccaceli, Bryan SMR FSM Yamaha 2:00.356 14 0:08.104 0:00.923 16 54.7
26 72 Wysocki, Tomasz POL PZM KTM 2:00.509 14 0:08.257 0:00.153 16 54.6
27 78 Kohut, Tomas SVK SMF KTM 2:00.594 11 0:08.342 0:00.085 16 54.6
28 57 Macuks, Toms LAT LAMSF Kawasaki 2:00.894 15 0:08.642 0:00.300 16 54.4
29 24 Harwood, Hamish NZL MNZ KTM 2:01.247 14 0:08.995 0:00.353 14 54.3
30 81 Ramos, Jean Carlo BRA CBM Yamaha 2:01.464 9 0:09.212 0:00.217 13 54.2
31 117 Szoke, Mark HUN MAMS Suzuki 2:03.154 10 0:10.902 0:01.690 16 53.4
32 90 Jaros, Matej CRO HMS Kawasaki 2:03.322 11 0:11.070 0:00.168 12 53.4
33 84 Savaste, Kim FIN SML Kawasaki 2:05.460 3 0:13.208 0:02.138 4 52.5
34 120 Gudmundsson, Andri ISL NMF Honda 2:07.350 7 0:15.098 0:01.890 13 51.7
35 96 Kouzis, Panagiotis GRE AMOTOE Honda 2:07.514 14 0:15.262 0:00.164 14 51.6
36 102 Frank, Björn LUX MUL Honda 2:10.513 6 0:18.261 0:02.999 11 50.4
37 93 Naumchyk, Yurii UKR FMU Yamaha 2:17.704 10 0:25.452 0:07.191 13 47.8
38 108 Hasson, Oren ISR MEMSI Honda 2:21.092 6 0:28.840 0:03.388 10 46.6

 

Free Practice MX2

Pos Nr Rider Nat. Fed. Bike Bestlaptime in lap Diff. First Diff. Prev. Tot. Laps Speed
1 8 Van Horebeek, Jeremy BEL FMB Yamaha 1:54.284 9 0:00.000 0:00.000 10 57.6
2 5 Martin, Alex USA AMA Yamaha 1:54.299 16 0:00.015 0:00.015 17 57.6
3 14 Seewer, Jeremy SUI FMS Suzuki 1:55.821 9 0:01.537 0:01.522 16 56.8
4 17 Bogers, Brian NED KNMV KTM 1:56.105 13 0:01.821 0:00.284 16 56.7
5 2 Paturel, Benoit FRA FFM Yamaha 1:56.147 8 0:01.863 0:00.042 15 56.7
6 41 Bernardini, Samuele ITA FMI TM 1:56.336 11 0:02.052 0:00.189 11 56.6
7 11 Leok, Tanel EST EMF KTM 1:56.588 10 0:02.304 0:00.252 16 56.5
8 32 Prado Garcia, Jorge ESP RFME KTM 1:56.608 10 0:02.324 0:00.020 17 56.4
9 53 Anstie, Max GBR ACU Husqvarna 1:57.028 12 0:02.744 0:00.420 15 56.2
10 44 Kjer Olsen, Thomas DEN DMU Husqvarna 1:57.036 10 0:02.752 0:00.008 13 56.2
11 35 Brylyakov, Vsevolod RUS MFR Kawasaki 1:57.235 16 0:02.951 0:00.199 16 56.1
12 26 Jacobi, Henry GER DMSB KTM 1:57.779 13 0:03.495 0:00.544 15 55.9
13 38 Östlund, Alvin SWE SVEMO Yamaha 1:58.100 13 0:03.816 0:00.321 14 55.7
14 116 Szvoboda, Bence HUN MAMS KTM 1:58.337 13 0:04.053 0:00.237 16 55.6
15 20 Evans, Mitchell AUS MA Yamaha 1:58.809 12 0:04.525 0:00.472 13 55.4
16 113 Maffenbeirer, Shawn CAN CMA KTM 1:59.239 15 0:04.955 0:00.430 17 55.2
17 65 Neugebauer, Filip CZE DMSB Kawasaki 1:59.394 14 0:05.110 0:00.155 14 55.1
18 50 Barr, Martin IRL MCUI Honda 1:59.411 8 0:05.127 0:00.017 15 55.1
19 56 Sabulis, Karlis LAT LAMSF Yamaha 1:59.561 12 0:05.277 0:00.150 14 55.1
20 83 Sihvonen, Miro FIN SML KTM 1:59.595 14 0:05.311 0:00.034 15 55
21 23 Natzke, Josiah NZL FMB KTM 1:59.940 7 0:05.656 0:00.345 15 54.9
22 77 Sikyna, Richard SVK SMF KTM 2:00.086 14 0:05.802 0:00.146 15 54.8
23 110 Adams, Nicholas RSA MSA Honda 2:00.249 11 0:05.965 0:00.163 16 54.7
24 92 Tarasov, Volodymyr UKR FMU KTM 2:00.721 10 0:06.437 0:00.472 13 54.5
25 62 Pancar, Jan SLO AMZS Yamaha 2:01.526 13 0:07.242 0:00.805 16 54.2
26 29 Sandner, Michael AUT OeAMTC KTM 2:01.714 13 0:07.430 0:00.188 15 54.1
27 47 Basaula, Hugo POR FMP Kawasaki 2:01.745 11 0:07.461 0:00.031 17 54.1
28 59 Notsuka, Chihiro JPN MFJ Honda 2:01.877 14 0:07.593 0:00.132 16 54
29 74 Karka, Dovydas LTU LMSF KTM 2:02.728 10 0:08.444 0:00.851 14 53.6
30 71 Staszkiewicz, Szymon POL PZM KTM 2:03.594 12 0:09.310 0:00.866 16 53.3
31 80 Alves, Ramyller BRA CBM Yamaha 2:04.313 10 0:10.029 0:00.719 16 52.9
32 119 Reynisson, Eythor ISL MSI Kawasaki 2:04.744 16 0:10.460 0:00.431 16 52.8
33 89 Crnkovic, Luka CRO AMZS Yamaha 2:04.894 10 0:10.610 0:00.150 16 52.7
34 95 Kritikos, Emmanouil GRE AMOTOE Yamaha 2:07.901 11 0:13.617 0:03.007 14 51.5
35 98 Aponte, Gino PUR AMA Kawasaki 2:09.051 13 0:14.767 0:01.150 15 51
36 125 Gorini, Andrea SMR FSM Suzuki 2:09.555 11 0:15.271 0:00.504 13 50.8
37 107 Maya, Dan ISR MEMSI Kawasaki 2:23.827 11 0:29.543 0:14.272 13 45.8
38 101 Frank, Yves LUX MUL Honda 2:25.950 11 0:31.666 0:02.123 12 45.1

 

Free Practice MXGP

Pos Nr Rider Nat. Fed. Bike Bestlaptime in lap Diff. First Diff. Prev. Tot. Laps Speed
1 1 Febvre, Romain FRA FFM Yamaha 1:53.573 10 0:00.000 0:00.000 11 58
2 25 Nagl, Maximilian GER DMSB Husqvarna 1:54.858 9 0:01.285 0:01.285 10 57.3
3 7 Strijbos, Kevin BEL FMB Suzuki 1:55.252 11 0:01.679 0:00.394 13 57.1
4 40 Cairoli, Antonio ITA FMI KTM 1:55.345 8 0:01.772 0:00.093 11 57.1
5 4 Webb, Cooper USA AMA Yamaha 1:55.906 15 0:02.333 0:00.561 16 56.8
6 16 Coldenhoff, Glenn NED KNMV KTM 1:56.008 11 0:02.435 0:00.102 14 56.7
7 13 Guillod, Valentin SUI FMS Yamaha 1:56.064 12 0:02.491 0:00.056 15 56.7
8 52 Searle, Tommy GBR ACU Kawasaki 1:56.638 10 0:03.065 0:00.574 16 56.4
9 19 Waters, Todd AUS MA Suzuki 1:57.654 11 0:04.081 0:01.016 15 55.9
10 31 Butron, Jose ESP RFME KTM 1:57.723 12 0:04.150 0:00.069 14 55.9
11 10 Ratsep, Priit EST EMF Honda 1:59.161 5 0:05.588 0:01.438 11 55.2
12 43 Larsen, Nikolaj DEN DMU KTM 1:59.211 13 0:05.638 0:00.050 16 55.2
13 46 Goncalves, Rui POR FMP Husqvarna 1:59.255 12 0:05.682 0:00.044 15 55.2
14 37 Gole, Anton SWE SVEMO Husqvarna 1:59.274 12 0:05.701 0:00.019 13 55.2
15 112 Benoit, Kaven CAN CMA KTM 1:59.687 14 0:06.114 0:00.413 16 55
16 22 Cooper, Cody NZL MNZ Honda 2:00.037 12 0:06.464 0:00.350 12 54.8
17 28 Neurauter, Lukas AUT OeAMTC KTM 2:00.414 13 0:06.841 0:00.377 15 54.7
18 115 Hugyecz, Erik HUN MAMS KTM 2:00.814 9 0:07.241 0:00.400 12 54.5
19 61 Irt, Peter SLO AMZS Yamaha 2:01.480 9 0:07.907 0:00.666 14 54.2
20 55 Ivanovs, Davis LAT LAMSF Yamaha 2:01.791 10 0:08.218 0:00.311 13 54
21 82 Malin, Valtteri FIN SML KTM 2:02.243 12 0:08.670 0:00.452 15 53.8
22 70 Lonka, Lukasz POL PZM KTM 2:02.566 10 0:08.993 0:00.323 13 53.7
23 79 Dos Santos , Fabio Aparecido BRA CBM Yamaha 2:03.371 10 0:09.798 0:00.805 14 53.3
24 58 Narita, Akira JPN MFJ Honda 2:03.428 12 0:09.855 0:00.057 14 53.3
25 73 Bucas, Vytautas LTU LMSF Yamaha 2:03.519 12 0:09.946 0:00.091 13 53.3
26 124 Marini, Thomas SMR FSM Husqvarna 2:03.795 9 0:10.222 0:00.276 11 53.2
27 64 Romancik, Jaromir CZE ACCR Suzuki 2:04.834 13 0:11.261 0:01.039 13 52.7
28 91 Morozov, Roman UKR FMU Yamaha 2:05.955 9 0:12.382 0:01.121 13 52.3
29 34 Rogozin, Semen RUS MFR Husqvarna 2:06.058 8 0:12.485 0:00.103 11 52.2
30 109 Fitzgerald, Kerim RSA MSA KTM 2:06.274 13 0:12.701 0:00.216 13 52.1
31 76 Simko, Tomas SVK SMF Honda 2:07.271 13 0:13.698 0:00.997 13 51.7
32 88 Karas, Hrvoje CRO HMS Yamaha 2:07.850 10 0:14.277 0:00.579 11 51.5
33 97 Astudillo, Jason PUR AMA Kawasaki 2:10.544 7 0:16.971 0:02.694 12 50.4
34 94 Kontoletas, Dimitrios GRE AMOTOE Yamaha 2:16.481 12 0:22.908 0:05.937 13 48.2
35 49 Irwin, Graeme IRL MCUI Honda 2:20.154 1 0:26.581 0:03.673 1 47
36 100 Tabouraing , Eric LUX MUL Kawasaki 2:26.581 5 0:33.008 0:06.427 7 44.9
37 106 Karmi, Ziv ISR MEMSI KTM 2:30.017 7 0:36.444 0:03.436 11 43.9
38 118 Birgisson, Ingvi Bjorn ISL MSI Kawasaki 2:38.008 1 0:44.435 0:07.991 1 41.6

Kommentar hinzufügen

Du musst eingelogged sein um einen Kommentar zu verfassen.